createdAt,value
2022-11-22T00:01:21.355Z,2.30
2022-11-22T00:03:49.725Z,2.13
2022-11-22T00:06:18.054Z,2.35
2022-11-22T00:08:46.421Z,3.00
2022-11-22T00:11:16.219Z,2.70
2022-11-22T00:13:44.559Z,2.10
2022-11-22T00:16:12.884Z,2.38
2022-11-22T00:18:41.206Z,2.22
2022-11-22T00:21:09.708Z,2.58
2022-11-22T00:23:38.061Z,2.30
2022-11-22T00:26:07.129Z,2.35
2022-11-22T00:28:36.879Z,2.45
2022-11-22T00:31:05.244Z,2.25
2022-11-22T00:33:33.567Z,2.60
2022-11-22T00:36:01.918Z,2.35
2022-11-22T00:38:30.560Z,2.45
2022-11-22T00:40:58.916Z,2.35
2022-11-22T00:43:27.509Z,2.17
2022-11-22T00:45:57.258Z,2.50
2022-11-22T00:48:25.605Z,2.13
2022-11-22T00:50:54.148Z,2.90
2022-11-22T00:53:22.478Z,2.67
2022-11-22T00:55:50.846Z,2.40
2022-11-22T00:58:19.230Z,2.92
2022-11-22T01:00:49.996Z,3.00
2022-11-22T01:03:23.201Z,2.83
2022-11-22T01:05:51.571Z,3.40
2022-11-22T01:08:19.901Z,3.50
2022-11-22T01:10:48.273Z,3.10
2022-11-22T01:13:16.608Z,3.10
2022-11-22T01:15:45.850Z,3.40
2022-11-22T01:18:14.207Z,3.38
2022-11-22T01:20:44.147Z,2.83
2022-11-22T01:23:12.501Z,3.00
2022-11-22T01:25:44.067Z,3.05
2022-11-22T01:28:12.447Z,3.40
2022-11-22T01:30:40.920Z,2.78
2022-11-22T01:33:09.233Z,3.10
2022-11-22T01:35:37.613Z,3.25
2022-11-22T01:38:07.321Z,2.95
2022-11-22T01:40:35.661Z,3.20
2022-11-22T01:43:04.289Z,3.35
2022-11-22T01:45:44.299Z,2.88
2022-11-22T01:48:20.976Z,3.15
2022-11-22T01:50:50.859Z,3.40
2022-11-22T01:53:22.520Z,3.45
2022-11-22T01:55:52.452Z,3.55
2022-11-22T01:58:21.419Z,3.08
2022-11-22T02:00:50.135Z,2.97
2022-11-22T02:03:20.441Z,3.40
2022-11-22T02:05:49.670Z,2.97
2022-11-22T02:08:21.655Z,3.08
2022-11-22T02:10:52.645Z,3.47
2022-11-22T02:13:22.355Z,3.60
2022-11-22T02:15:51.348Z,3.17
2022-11-22T02:18:19.784Z,3.55
2022-11-22T02:20:48.213Z,2.90
2022-11-22T02:23:21.711Z,3.47
2022-11-22T02:25:53.147Z,3.45
2022-11-22T02:28:21.479Z,3.05
2022-11-22T02:30:49.846Z,3.33
2022-11-22T02:33:18.334Z,2.90
2022-11-22T02:35:46.704Z,3.00
2022-11-22T02:38:17.383Z,3.15
2022-11-22T02:40:47.306Z,2.83
2022-11-22T02:43:18.795Z,3.03
2022-11-22T02:45:47.172Z,2.85
2022-11-22T02:48:16.280Z,3.22
2022-11-22T02:50:45.232Z,3.58
2022-11-22T02:53:14.137Z,3.63
2022-11-22T02:55:42.547Z,3.25
2022-11-22T02:58:10.876Z,2.78
2022-11-22T03:00:40.642Z,2.95
2022-11-22T03:03:09.034Z,2.95
2022-11-22T03:05:37.548Z,2.95
2022-11-22T03:08:05.892Z,2.78
2022-11-22T03:10:34.262Z,2.80
2022-11-22T03:13:02.596Z,2.80
2022-11-22T03:15:30.924Z,2.63
2022-11-22T03:18:01.104Z,3.13
2022-11-22T03:20:29.972Z,2.92
2022-11-22T03:22:58.651Z,2.80
2022-11-22T03:25:27.514Z,2.97
2022-11-22T03:27:55.831Z,3.65
2022-11-22T03:30:24.199Z,3.30
2022-11-22T03:32:52.533Z,3.58
2022-11-22T03:35:22.265Z,3.40
2022-11-22T03:37:50.577Z,2.90
2022-11-22T03:40:18.944Z,3.15
2022-11-22T03:42:47.264Z,3.50
2022-11-22T03:45:15.609Z,2.80
2022-11-22T03:47:43.927Z,3.67
2022-11-22T03:50:12.331Z,3.47
2022-11-22T03:52:42.016Z,3.47
2022-11-22T03:55:10.705Z,3.35
2022-11-22T03:57:39.044Z,3.13
2022-11-22T04:00:08.602Z,3.17
2022-11-22T04:02:36.957Z,3.30
2022-11-22T04:05:05.431Z,3.65
2022-11-22T04:07:33.911Z,3.13
2022-11-22T04:10:03.645Z,3.15
2022-11-22T04:12:32.048Z,3.13
2022-11-22T04:15:08.568Z,2.88
2022-11-22T04:17:44.739Z,3.42
2022-11-22T04:20:32.015Z,4.15
2022-11-22T04:23:00.886Z,3.35
2022-11-22T04:25:30.500Z,3.15
2022-11-22T04:27:59.105Z,2.88
2022-11-22T04:30:48.555Z,3.22
2022-11-22T04:33:16.245Z,3.13
2022-11-22T04:35:44.937Z,3.30
2022-11-22T04:38:13.729Z,3.10
2022-11-22T04:40:43.490Z,3.00
2022-11-22T04:43:30.310Z,3.65
2022-11-22T04:45:58.630Z,3.25
2022-11-22T04:48:26.952Z,3.03
2022-11-22T04:51:13.247Z,3.22
2022-11-22T04:53:41.648Z,3.85
2022-11-22T04:56:11.325Z,3.33
2022-11-22T04:58:39.902Z,3.97
2022-11-22T05:01:08.459Z,3.47
2022-11-22T05:03:36.943Z,3.08
2022-11-22T05:06:06.451Z,3.50
2022-11-22T05:08:34.901Z,3.15
2022-11-22T05:11:03.221Z,3.05
2022-11-22T05:13:34.126Z,4.53
2022-11-22T05:16:03.066Z,3.55
2022-11-22T05:18:31.569Z,4.00
2022-11-22T05:21:00.752Z,3.33
2022-11-22T05:23:46.610Z,3.70
2022-11-22T05:26:14.989Z,3.70
2022-11-22T05:28:44.699Z,3.40
2022-11-22T05:31:13.898Z,3.35
2022-11-22T05:33:43.066Z,3.88
2022-11-22T05:36:11.927Z,3.00
2022-11-22T05:38:40.723Z,3.78
2022-11-22T05:41:10.037Z,3.13
2022-11-22T05:43:38.620Z,3.35
2022-11-22T05:46:09.631Z,4.30
2022-11-22T05:48:38.073Z,3.38
2022-11-22T05:51:07.729Z,3.33
2022-11-22T05:53:36.277Z,2.97
2022-11-22T05:56:08.035Z,3.35
2022-11-22T05:58:36.840Z,3.38
2022-11-22T06:01:06.374Z,4.18
2022-11-22T06:03:36.524Z,3.20
2022-11-22T06:06:05.097Z,3.40
2022-11-22T06:08:34.285Z,3.47
2022-11-22T06:11:06.064Z,3.47
2022-11-22T06:13:38.116Z,3.88
2022-11-22T06:16:06.772Z,3.28
2022-11-22T06:18:36.887Z,2.90
2022-11-22T06:21:06.529Z,3.20
2022-11-22T06:23:35.302Z,3.40
2022-11-22T06:26:04.192Z,3.65
2022-11-22T06:28:33.420Z,4.15
2022-11-22T06:31:02.829Z,2.78
2022-11-22T06:33:31.201Z,3.13
2022-11-22T06:36:04.709Z,3.28
2022-11-22T06:38:33.160Z,2.83
2022-11-22T06:41:02.253Z,2.72
2022-11-22T06:43:30.802Z,3.35
2022-11-22T06:45:59.423Z,3.92
2022-11-22T06:48:27.898Z,3.38
2022-11-22T06:51:00.390Z,3.40
2022-11-22T06:53:46.960Z,3.40
2022-11-22T06:56:16.687Z,3.95
2022-11-22T06:58:45.534Z,3.53
2022-11-22T07:01:15.097Z,3.20
2022-11-22T07:03:43.766Z,2.97
2022-11-22T07:06:13.352Z,3.42
2022-11-22T07:08:43.322Z,3.83
2022-11-22T07:11:12.565Z,3.28
2022-11-22T07:13:41.370Z,3.13
2022-11-22T07:16:10.826Z,3.60
2022-11-22T07:18:39.247Z,3.50
2022-11-22T07:21:12.880Z,3.13
2022-11-22T07:23:43.893Z,3.38
2022-11-22T07:26:15.217Z,3.63
2022-11-22T07:28:43.622Z,2.85
2022-11-22T07:31:13.086Z,3.75
2022-11-22T07:33:41.706Z,2.83
2022-11-22T07:36:11.240Z,3.15
2022-11-22T07:38:39.921Z,2.92
2022-11-22T07:41:09.920Z,2.72
2022-11-22T07:43:38.403Z,3.38
2022-11-22T07:46:08.087Z,3.05
2022-11-22T07:48:36.570Z,2.72
2022-11-22T07:51:06.350Z,3.22
2022-11-22T07:53:35.128Z,2.83
2022-11-22T07:56:04.204Z,3.58
2022-11-22T07:58:34.316Z,2.30
2022-11-22T08:01:06.475Z,3.58
2022-11-22T08:03:34.882Z,3.20
2022-11-22T08:06:03.830Z,3.20
2022-11-22T08:08:32.216Z,2.63
2022-11-22T08:11:00.569Z,2.72
2022-11-22T08:13:29.034Z,2.50
2022-11-22T08:16:05.451Z,3.08
2022-11-22T08:18:34.273Z,2.70
2022-11-22T08:21:09.667Z,3.38
2022-11-22T08:23:38.449Z,2.67
2022-11-22T08:26:07.445Z,2.58
2022-11-22T08:28:36.032Z,2.35
2022-11-22T08:31:06.935Z,2.70
2022-11-22T08:33:35.317Z,2.58
2022-11-22T08:36:03.683Z,3.30
2022-11-22T08:38:32.031Z,2.78
2022-11-22T08:41:00.440Z,3.20
2022-11-22T08:43:28.843Z,2.40
2022-11-22T08:45:58.595Z,2.28
2022-11-22T08:48:28.669Z,2.17
2022-11-22T08:50:58.254Z,2.65
2022-11-22T08:53:27.434Z,1.77
2022-11-22T08:55:56.522Z,1.98
2022-11-22T08:58:24.892Z,2.10
2022-11-22T09:00:53.229Z,2.40
2022-11-22T09:03:21.632Z,2.00
2022-11-22T09:08:43.032Z,2.03
2022-11-22T09:11:13.807Z,2.28
2022-11-22T09:13:42.297Z,3.38
2022-11-22T09:16:12.257Z,2.13
2022-11-22T09:18:41.050Z,2.60
2022-11-22T09:21:15.776Z,1.98
2022-11-22T09:23:44.703Z,2.60
2022-11-22T09:26:13.928Z,2.38
2022-11-22T09:28:42.521Z,2.65
2022-11-22T09:31:12.009Z,2.20
2022-11-22T09:33:41.223Z,2.90
2022-11-22T09:36:12.145Z,1.77
2022-11-22T09:38:40.792Z,2.05
2022-11-22T09:41:20.054Z,2.40
2022-11-22T09:43:52.278Z,2.15
2022-11-22T09:46:24.447Z,1.88
2022-11-22T09:49:01.801Z,1.92
2022-11-22T09:51:34.746Z,1.95
2022-11-22T09:54:07.043Z,2.20
2022-11-22T09:56:35.880Z,2.05
2022-11-22T09:59:07.191Z,1.95
2022-11-22T10:01:39.282Z,2.03
2022-11-22T10:04:10.087Z,2.08
2022-11-22T10:06:42.014Z,1.85
2022-11-22T10:09:18.779Z,1.80
2022-11-22T10:11:49.430Z,2.10
2022-11-22T10:14:24.794Z,1.95
2022-11-22T10:16:55.041Z,2.10
2022-11-22T10:19:25.746Z,1.73
2022-11-22T10:21:55.526Z,2.00
2022-11-22T10:24:24.139Z,1.80
2022-11-22T10:26:52.995Z,1.80
2022-11-22T10:29:28.396Z,1.65
2022-11-22T10:32:00.754Z,2.17
2022-11-22T10:34:35.008Z,1.58
2022-11-22T10:37:07.112Z,1.73
2022-11-22T10:39:50.630Z,1.77
2022-11-22T10:42:28.518Z,2.00
2022-11-22T10:44:59.714Z,1.58
2022-11-22T10:47:34.627Z,1.88
2022-11-22T10:50:07.077Z,1.58
2022-11-22T10:52:41.184Z,1.38
2022-11-22T10:55:19.004Z,1.67
2022-11-22T10:57:52.943Z,1.27
2022-11-22T11:00:22.478Z,1.50
2022-11-22T11:03:09.666Z,1.77
2022-11-22T11:06:15.318Z,1.75
2022-11-22T11:09:02.829Z,1.50
2022-11-22T11:11:26.430Z,1.50
2022-11-22T11:13:56.654Z,1.80
2022-11-22T11:16:27.267Z,1.50
2022-11-22T11:18:57.504Z,1.90
2022-11-22T11:21:26.450Z,1.23
2022-11-22T11:23:56.165Z,1.63
2022-11-22T11:26:26.065Z,1.52
2022-11-22T11:29:17.904Z,1.83
2022-11-22T11:31:46.732Z,1.52
2022-11-22T11:34:17.954Z,1.30
2022-11-22T11:36:46.305Z,1.50
2022-11-22T11:39:23.108Z,1.25
2022-11-22T11:41:51.680Z,2.35
2022-11-22T11:44:28.784Z,1.73
2022-11-22T11:46:57.599Z,1.40
2022-11-22T11:49:26.576Z,1.30
2022-11-22T11:51:56.700Z,1.33
2022-11-22T11:54:28.008Z,1.50
2022-11-22T11:56:57.654Z,1.20
2022-11-22T11:59:27.649Z,1.27
2022-11-22T12:01:59.053Z,1.45
2022-11-22T12:04:29.579Z,1.27
2022-11-22T12:07:03.121Z,1.38
2022-11-22T12:09:35.154Z,1.67
2022-11-22T12:12:18.415Z,1.20
2022-11-22T12:15:10.242Z,1.23
2022-11-22T12:17:40.836Z,1.10
2022-11-22T12:20:13.759Z,1.40
2022-11-22T12:25:39.014Z,1.55
2022-11-22T12:28:14.566Z,1.20
2022-11-22T12:30:44.128Z,1.33
2022-11-22T12:33:16.930Z,1.17
2022-11-22T12:35:46.475Z,1.20
2022-11-22T12:38:18.730Z,1.00
2022-11-22T12:40:49.917Z,1.25
2022-11-22T12:43:20.116Z,1.38
2022-11-22T12:45:51.009Z,1.27
2022-11-22T12:48:21.124Z,1.17
2022-11-22T12:48:23.741Z,1.35
2022-11-22T12:50:51.155Z,1.20
2022-11-22T12:53:21.439Z,0.85
2022-11-22T12:55:52.954Z,1.00
2022-11-22T12:58:34.008Z,0.90
2022-11-22T13:01:07.580Z,0.90
2022-11-22T13:03:39.475Z,1.17
2022-11-22T13:06:09.362Z,1.10
2022-11-22T13:08:40.600Z,0.90
2022-11-22T13:11:14.047Z,1.00
2022-11-22T13:13:44.161Z,0.90
2022-11-22T13:16:13.958Z,1.10
2022-11-22T13:18:44.507Z,1.42
2022-11-22T13:21:19.500Z,0.93
2022-11-22T13:24:02.834Z,1.05
2022-11-22T13:26:36.035Z,1.08
2022-11-22T13:29:06.044Z,0.90
2022-11-22T13:31:40.686Z,1.10
2022-11-22T13:34:24.212Z,1.00
2022-11-22T13:36:56.709Z,0.90
2022-11-22T13:39:29.068Z,0.82
2022-11-22T13:42:06.203Z,1.10
2022-11-22T13:44:53.088Z,1.15
2022-11-22T13:47:41.492Z,0.70
2022-11-22T13:52:53.281Z,1.40
2022-11-22T14:02:01.054Z,1.17
2022-11-22T14:17:20.514Z,1.00
2022-11-22T14:35:26.192Z,1.23
2022-11-22T14:38:05.178Z,0.95
2022-11-22T14:40:35.031Z,1.50
2022-11-22T14:43:09.031Z,1.27
2022-11-22T14:45:47.540Z,1.00
2022-11-22T14:48:19.139Z,0.98
2022-11-22T14:50:49.413Z,1.15
2022-11-22T14:53:22.026Z,1.05
2022-11-22T14:55:52.246Z,1.52
2022-11-22T14:58:24.139Z,0.90
2022-11-22T15:01:04.997Z,0.95
2022-11-22T15:03:48.190Z,0.90
2022-11-22T15:09:11.675Z,1.20
2022-11-22T15:09:42.135Z,0.90
2022-11-22T15:12:20.686Z,0.82
2022-11-22T15:57:47.808Z,0.95
2022-11-22T16:00:21.909Z,0.90
2022-11-22T16:02:51.012Z,0.70
2022-11-22T16:06:07.395Z,1.00
2022-11-22T16:08:16.015Z,0.65
2022-11-22T16:10:45.581Z,0.88
2022-11-22T16:13:15.248Z,1.02
2022-11-22T16:15:43.737Z,1.10
2022-11-22T16:18:16.324Z,1.08
2022-11-22T16:20:59.800Z,1.00
2022-11-22T16:23:30.307Z,0.90
2022-11-22T16:26:00.062Z,1.10
2022-11-22T16:28:32.832Z,1.05
2022-11-22T16:31:02.363Z,1.00
2022-11-22T16:33:31.222Z,0.90
2022-11-22T16:36:00.160Z,1.23
2022-11-22T16:38:30.521Z,0.95
2022-11-22T16:41:00.159Z,1.00
2022-11-22T16:43:28.926Z,0.95
2022-11-22T16:45:57.439Z,0.98
2022-11-22T16:48:32.762Z,1.20
2022-11-22T16:51:03.912Z,1.02
2022-11-22T16:53:39.294Z,0.90
2022-11-22T16:56:08.321Z,0.80
2022-11-22T16:58:36.674Z,1.00
2022-11-22T17:01:05.183Z,1.17
2022-11-22T17:03:36.326Z,1.50
2022-11-22T17:06:04.758Z,1.10
2022-11-22T17:08:33.100Z,1.42
2022-11-22T17:11:02.782Z,1.20
2022-11-22T17:13:31.122Z,1.45
2022-11-22T17:15:59.517Z,1.38
2022-11-22T17:18:27.860Z,1.50
2022-11-22T17:20:56.197Z,1.40
2022-11-22T17:23:28.403Z,1.33
2022-11-22T17:25:57.115Z,1.30
2022-11-22T17:28:27.111Z,1.30
2022-11-22T17:30:55.677Z,1.42
2022-11-22T17:33:24.987Z,1.30
2022-11-22T17:35:53.726Z,1.33
2022-11-22T17:38:22.092Z,1.40
2022-11-22T17:40:51.338Z,1.25
2022-11-22T17:43:19.689Z,1.60
2022-11-22T17:45:49.376Z,1.48
2022-11-22T17:48:18.285Z,1.48
2022-11-22T17:50:46.596Z,1.70
2022-11-22T17:53:14.906Z,1.65
2022-11-22T17:56:08.820Z,1.20
2022-11-22T17:58:32.002Z,1.60
2022-11-22T18:01:05.676Z,2.00
2022-11-22T18:03:34.148Z,1.67
2022-11-22T18:06:03.478Z,1.50
2022-11-22T18:08:32.197Z,1.80
2022-11-22T18:11:00.745Z,1.90
2022-11-22T18:13:32.810Z,1.90
2022-11-22T18:16:03.716Z,1.95
2022-11-22T18:18:55.660Z,1.70
2022-11-22T18:21:22.011Z,1.70
2022-11-22T18:23:50.430Z,2.03
2022-11-22T18:31:55.746Z,1.70
2022-11-22T18:34:25.663Z,1.65
2022-11-22T18:37:02.921Z,1.73
2022-11-22T18:39:33.575Z,1.60
2022-11-22T18:42:02.435Z,1.60
2022-11-22T18:44:30.839Z,1.50
2022-11-22T18:46:59.486Z,1.85
2022-11-22T18:49:29.729Z,1.70
2022-11-22T18:51:58.662Z,1.40
2022-11-22T18:54:27.404Z,2.15
2022-11-22T18:56:55.758Z,2.33
2022-11-22T18:59:24.075Z,1.80
2022-11-22T19:01:52.414Z,2.10
2022-11-22T19:04:20.799Z,2.25
2022-11-22T19:06:51.362Z,2.00
2022-11-22T19:09:19.703Z,2.40
2022-11-22T19:11:48.039Z,2.20
2022-11-22T19:14:16.523Z,2.42
2022-11-22T19:16:44.903Z,2.53
2022-11-22T19:19:13.336Z,2.45
2022-11-22T19:21:41.656Z,2.03
2022-11-22T19:24:11.602Z,2.05
2022-11-22T19:26:39.935Z,2.35
2022-11-22T19:29:08.790Z,2.03
2022-11-22T19:31:37.125Z,2.40
2022-11-22T19:34:05.533Z,1.83
2022-11-22T19:36:36.125Z,2.17
2022-11-22T19:39:05.195Z,1.80
2022-11-22T19:41:35.136Z,2.17
2022-11-22T19:44:04.491Z,1.90
2022-11-22T19:46:33.831Z,2.17
2022-11-22T19:49:02.518Z,1.90
2022-11-22T19:51:31.931Z,1.90
2022-11-22T19:54:02.350Z,2.40
2022-11-22T20:05:45.818Z,2.30
2022-11-22T20:17:09.333Z,2.55
2022-11-22T20:19:37.644Z,2.45
2022-11-22T20:22:05.987Z,2.67
2022-11-22T20:24:34.459Z,2.63
2022-11-22T20:27:03.511Z,3.05
2022-11-22T20:32:55.792Z,2.58
2022-11-22T20:35:24.811Z,2.50
2022-11-22T20:43:33.037Z,2.35
2022-11-22T20:58:38.423Z,2.40
2022-11-22T21:23:43.071Z,2.00
2022-11-22T21:26:11.448Z,2.08
2022-11-22T21:28:40.601Z,2.42
2022-11-22T21:31:08.953Z,2.38
2022-11-22T21:33:37.744Z,2.53
2022-11-22T21:36:08.482Z,2.05
2022-11-22T21:38:38.438Z,2.22
2022-11-22T21:41:37.678Z,2.10
2022-11-22T21:43:56.776Z,2.30
2022-11-22T21:46:25.892Z,2.15
2022-11-22T21:48:55.852Z,2.05
2022-11-22T21:51:26.476Z,2.50
2022-11-22T21:53:58.807Z,2.30
2022-11-22T21:56:27.367Z,1.67
2022-11-22T21:58:55.745Z,2.50
2022-11-22T22:01:24.305Z,2.90
2022-11-22T22:03:52.979Z,2.42
2022-11-22T22:06:21.381Z,2.25
2022-11-22T22:08:51.109Z,1.75
2022-11-22T22:11:19.936Z,2.03
2022-11-22T22:13:48.310Z,2.42
2022-11-22T22:16:19.236Z,1.90
2022-11-22T22:18:48.080Z,2.40
2022-11-22T22:21:16.509Z,1.67
2022-11-22T22:23:45.222Z,2.15
2022-11-22T22:26:15.884Z,1.90
2022-11-22T22:28:45.051Z,2.05
2022-11-22T22:31:14.687Z,1.95
2022-11-22T22:33:43.453Z,2.15
2022-11-22T22:36:12.178Z,2.08
2022-11-22T22:38:40.757Z,2.42
2022-11-22T22:41:09.959Z,1.90
2022-11-22T22:43:40.892Z,1.92
2022-11-22T22:46:10.412Z,2.17
2022-11-22T22:48:38.823Z,1.88
2022-11-22T22:51:08.088Z,1.90
2022-11-22T22:53:36.440Z,1.85
2022-11-22T22:56:04.883Z,2.35
2022-11-22T22:58:33.191Z,2.70
2022-11-22T23:01:10.439Z,2.22
2022-11-22T23:03:38.992Z,2.10
2022-11-22T23:06:08.373Z,1.90
2022-11-22T23:08:36.843Z,2.00
2022-11-22T23:11:06.441Z,2.22
2022-11-22T23:13:36.054Z,2.60
2022-11-22T23:16:04.564Z,2.20
2022-11-22T23:18:36.405Z,2.20
2022-11-22T23:21:05.587Z,2.08
2022-11-22T23:23:33.979Z,2.42
2022-11-22T23:26:03.272Z,1.88
2022-11-22T23:28:31.881Z,2.08
2022-11-22T23:31:05.439Z,2.60
2022-11-22T23:33:35.297Z,2.40
2022-11-22T23:36:04.749Z,2.15
2022-11-22T23:38:33.293Z,2.42
2022-11-22T23:41:01.685Z,2.13
2022-11-22T23:43:30.466Z,2.55
2022-11-22T23:45:59.693Z,1.95
2022-11-22T23:48:28.275Z,2.20
2022-11-22T23:50:57.985Z,2.03
2022-11-22T23:53:26.321Z,2.20
2022-11-22T23:55:54.724Z,2.75
2022-11-22T23:58:23.101Z,2.15
